Time;durP1;ratioP1;P1;durP2;ratioP2;P2;SDS_P1;SDS_P2;PMS_P1;PMS_P2;Temp;Humidity;BMP_temperature;BMP_pressure;BME280_temperature;BME280_humidity;BME280_pressure;Samples;Min_cycle;Max_cycle;Signal;HPM_P1;HPM_P2
2021/05/12 00:01:58;;;;;;;3.80;2.42;;;;;;;19.83;45.59;99024.32;1631188;88;21124;-79
2021/05/12 00:04:24;;;;;;;3.65;2.77;;;;;;;19.78;45.68;99026.80;1628107;87;21262;-79
2021/05/12 00:06:50;;;;;;;3.65;2.67;;;;;;;19.72;45.91;99024.41;1626701;87;21133;-79
2021/05/12 00:09:16;;;;;;;2.87;2.30;;;;;;;19.67;46.03;99030.86;1631842;87;21151;-79
2021/05/12 00:11:43;;;;;;;3.10;2.85;;;;;;;19.58;46.15;99032.06;1625197;87;21279;-79
2021/05/12 00:14:09;;;;;;;4.55;3.25;;;;;;;19.52;46.40;99026.99;1632999;87;21569;-79
2021/05/12 00:16:35;;;;;;;5.00;2.65;;;;;;;19.44;46.49;99021.28;1625534;88;21261;-79
2021/05/12 00:19:02;;;;;;;4.42;2.67;;;;;;;19.39;46.58;99027.77;1627990;88;21172;-79
2021/05/12 00:21:37;;;;;;;5.17;2.25;;;;;;;19.34;46.69;99028.04;1631571;88;21151;-79
2021/05/12 00:24:00;;;;;;;3.83;2.50;;;;;;;19.27;46.83;99019.17;1631078;87;21136;-79
2021/05/12 00:26:35;;;;;;;4.20;2.58;;;;;;;19.21;47.12;99030.14;1631344;87;21134;-79
2021/05/12 00:28:56;;;;;;;4.00;2.77;;;;;;;19.15;47.11;99030.44;1629572;86;21669;-79
2021/05/12 00:31:22;;;;;;;3.58;2.50;;;;;;;19.08;47.33;99022.05;1630842;87;21096;-79
2021/05/12 00:33:48;;;;;;;4.70;2.50;;;;;;;19.01;47.56;99031.89;1625469;88;21285;-79
2021/05/12 00:36:14;;;;;;;4.33;2.25;;;;;;;18.97;47.59;99026.94;1618154;87;21174;-79
2021/05/12 00:38:40;;;;;;;5.10;3.47;;;;;;;18.91;47.86;99024.23;1624749;88;21241;-79
2021/05/12 00:41:06;;;;;;;3.98;2.83;;;;;;;18.85;47.93;99023.16;1630852;88;21092;-79
2021/05/12 00:43:32;;;;;;;5.50;3.05;;;;;;;18.82;48.13;99027.59;1630147;87;21135;-79
2021/05/12 00:45:58;;;;;;;4.67;2.87;;;;;;;18.78;48.15;99025.48;1618043;88;21202;-79
2021/05/12 00:48:24;;;;;;;5.35;2.80;;;;;;;18.76;48.14;99028.36;1617763;87;21732;-79
2021/05/12 00:50:50;;;;;;;4.25;2.60;;;;;;;18.74;48.23;99030.39;1618700;88;21160;-79
2021/05/12 00:53:16;;;;;;;4.12;2.77;;;;;;;18.76;48.27;99030.22;1621640;87;21715;-80
2021/05/12 00:55:42;;;;;;;4.22;2.37;;;;;;;18.77;48.42;99031.86;1630716;87;21180;-79
2021/05/12 00:58:07;;;;;;;5.03;2.62;;;;;;;18.76;48.36;99026.20;1630898;88;21180;-79
2021/05/12 01:00:33;;;;;;;4.83;2.60;;;;;;;18.76;48.51;99030.22;1629464;88;21283;-80
2021/05/12 01:03:02;;;;;;;4.65;2.67;;;;;;;18.73;48.63;99027.41;1617987;87;21317;-80
2021/05/12 01:05:40;;;;;;;4.30;2.60;;;;;;;18.73;48.64;99030.09;1625206;88;21611;-80
2021/05/12 01:08:06;;;;;;;4.17;2.62;;;;;;;18.69;49.08;99026.95;1628760;87;21197;-80
2021/05/12 01:10:34;;;;;;;6.10;3.12;;;;;;;18.67;49.02;99033.50;1631673;88;21107;-79
2021/05/12 01:13:00;;;;;;;4.42;2.37;;;;;;;18.65;49.08;99028.34;1630599;88;21178;-79
2021/05/12 01:15:28;;;;;;;3.85;2.62;;;;;;;18.61;49.29;99021.74;1631634;88;21169;-79
2021/05/12 01:18:19;;;;;;;3.92;2.90;;;;;;;18.60;49.30;99025.95;1630367;87;21166;-79
2021/05/12 01:21:00;;;;;;;4.40;2.70;;;;;;;18.58;49.36;99030.66;1630762;88;21185;-79
2021/05/12 01:23:33;;;;;;;4.00;3.10;;;;;;;18.53;49.44;99037.93;1631231;87;21289;-79
2021/05/12 01:26:01;;;;;;;5.72;3.08;;;;;;;18.49;49.55;99036.64;1630874;88;21237;-79
2021/05/12 01:28:32;;;;;;;2.83;2.37;;;;;;;18.45;49.70;99036.72;1630370;88;21139;-79
2021/05/12 01:31:09;;;;;;;3.85;2.87;;;;;;;18.41;49.83;99032.28;1631462;88;21170;-79
2021/05/12 01:33:37;;;;;;;4.33;3.22;;;;;;;18.37;50.02;99030.20;1626557;87;21673;-79
2021/05/12 01:36:05;;;;;;;3.75;2.90;;;;;;;18.32;50.14;99027.27;1629942;88;21143;-79
2021/05/12 01:38:32;;;;;;;4.80;2.67;;;;;;;18.26;50.21;99025.70;1611697;88;21181;-79
2021/05/12 01:40:59;;;;;;;5.03;3.52;;;;;;;18.23;50.30;99027.42;1629445;88;21129;-79
2021/05/12 01:43:25;;;;;;;5.15;3.42;;;;;;;18.17;50.32;99036.19;1631557;86;21316;-79
2021/05/12 01:45:52;;;;;;;3.72;2.87;;;;;;;18.14;50.43;99029.08;1631898;87;21600;-79
2021/05/12 01:48:18;;;;;;;5.67;3.25;;;;;;;18.11;50.45;99033.45;1630737;87;21534;-79
2021/05/12 01:50:45;;;;;;;5.65;3.72;;;;;;;18.07;50.64;99028.20;1627484;88;21304;-79
2021/05/12 01:53:12;;;;;;;4.42;3.40;;;;;;;17.99;50.92;99026.45;1625910;88;21154;-79
2021/05/12 01:55:39;;;;;;;5.08;3.10;;;;;;;17.91;51.11;99037.27;1631725;88;21720;-79
2021/05/12 01:58:05;;;;;;;7.12;4.30;;;;;;;17.84;51.38;99040.39;1630150;88;21172;-79
2021/05/12 02:00:44;;;;;;;4.72;3.20;;;;;;;17.78;51.58;99035.29;1631367;88;21310;-79
2021/05/12 02:03:11;;;;;;;4.80;3.42;;;;;;;17.71;51.62;99035.70;1605751;89;21127;-79
2021/05/12 02:05:40;;;;;;;4.35;3.10;;;;;;;17.66;51.71;99035.42;1629645;88;21330;-79
2021/05/12 02:08:09;;;;;;;5.20;3.12;;;;;;;17.62;51.75;99030.16;1631655;87;21107;-79
2021/05/12 02:10:36;;;;;;;4.92;3.87;;;;;;;17.58;51.88;99037.70;1626808;88;21128;-79
2021/05/12 02:13:03;;;;;;;6.50;3.70;;;;;;;17.55;52.06;99038.91;1620731;88;21290;-79
2021/05/12 02:15:29;;;;;;;7.60;3.55;;;;;;;17.52;52.15;99040.61;1630958;88;21100;-79
2021/05/12 02:17:56;;;;;;;3.75;3.20;;;;;;;17.48;52.19;99037.18;1625549;88;21900;-79
2021/05/12 02:20:29;;;;;;;3.80;2.87;;;;;;;17.46;52.47;99035.19;1619489;87;21306;-79
2021/05/12 02:22:57;;;;;;;6.12;3.52;;;;;;;17.43;52.76;99024.90;1620078;87;21133;-79
2021/05/12 02:25:24;;;;;;;4.75;3.30;;;;;;;17.40;52.67;99019.94;1631762;87;21256;-79
2021/05/12 02:27:50;;;;;;;5.45;3.17;;;;;;;17.37;52.83;99022.47;1629261;87;21132;-79
2021/05/12 02:30:17;;;;;;;3.87;2.80;;;;;;;17.22;52.87;98998.52;1630022;87;21620;-79
2021/05/12 02:32:43;;;;;;;4.87;3.42;;;;;;;17.31;52.94;99025.39;1630153;88;21121;-79
2021/05/12 02:35:12;;;;;;;6.00;3.30;;;;;;;17.27;53.25;99027.27;1627880;88;21167;-79
2021/05/12 02:37:38;;;;;;;4.55;3.62;;;;;;;17.24;53.07;99028.48;1631574;88;21591;-79
2021/05/12 02:40:08;;;;;;;6.33;3.12;;;;;;;17.24;53.07;99028.48;1624554;87;21563;-79
2021/05/12 02:42:34;;;;;;;3.55;2.77;;;;;;;17.21;53.24;99028.00;1618455;87;21610;-79
2021/05/12 02:45:00;;;;;;;6.37;3.25;;;;;;;17.18;53.34;99030.55;1630385;87;21139;-79
2021/05/12 02:47:26;;;;;;;4.55;3.45;;;;;;;17.15;53.51;99027.44;1617963;87;21104;-79
2021/05/12 02:49:52;;;;;;;5.95;3.77;;;;;;;17.10;53.73;99024.80;1626303;87;21308;-79
2021/05/12 02:52:18;;;;;;;5.65;3.83;;;;;;;17.05;53.77;99022.39;1618016;87;21179;-79
2021/05/12 02:54:45;;;;;;;4.80;3.35;;;;;;;17.02;54.03;99029.41;1630721;87;21151;-79
2021/05/12 02:57:11;;;;;;;5.70;4.12;;;;;;;16.97;54.00;99029.95;1623891;87;21586;-79
2021/05/12 02:59:37;;;;;;;4.87;3.50;;;;;;;16.95;54.08;99036.50;1618925;88;21270;-79
2021/05/12 03:02:03;;;;;;;3.70;3.12;;;;;;;16.91;54.27;99040.52;1625576;88;21201;-79
2021/05/12 03:04:30;;;;;;;6.10;4.00;;;;;;;16.87;54.35;99048.05;1631881;87;21510;-79
2021/05/12 03:06:56;;;;;;;6.67;3.60;;;;;;;16.83;54.32;99047.59;1631656;88;21139;-79
2021/05/12 03:09:25;;;;;;;6.90;3.95;;;;;;;16.82;54.43;99049.12;1630742;88;21246;-79
2021/05/12 03:11:51;;;;;;;4.53;3.62;;;;;;;16.80;54.60;99044.47;1626693;87;21626;-79
2021/05/12 03:14:18;;;;;;;5.92;4.00;;;;;;;16.77;54.90;99047.49;1630548;88;21193;-79
2021/05/12 03:16:45;;;;;;;6.22;3.72;;;;;;;16.74;55.02;99047.83;1630215;88;21281;-79
2021/05/12 03:19:11;;;;;;;9.63;4.08;;;;;;;16.72;54.95;99053.86;1621442;87;21582;-79
2021/05/12 03:21:38;;;;;;;8.10;4.08;;;;;;;16.68;55.13;99052.03;1618078;87;21171;-79
2021/05/12 03:24:06;;;;;;;7.37;4.35;;;;;;;16.62;55.37;99051.45;1626353;88;21176;-79
2021/05/12 03:26:33;;;;;;;6.53;4.80;;;;;;;16.58;55.61;99059.45;1631180;88;21652;-80
2021/05/12 03:29:00;;;;;;;6.53;4.00;;;;;;;16.52;56.39;99090.80;1626286;88;21585;-79
2021/05/12 03:31:26;;;;;;;6.55;4.22;;;;;;;16.39;56.34;99074.13;1631502;88;21160;-79
2021/05/12 03:33:55;;;;;;;8.15;5.25;;;;;;;16.33;56.67;99096.95;1627066;88;21301;-79
2021/05/12 03:36:21;;;;;;;5.83;4.15;;;;;;;16.25;56.90;99097.50;1627293;87;21164;-79
2021/05/12 03:38:47;;;;;;;5.72;3.95;;;;;;;16.21;57.38;99092.22;1631628;88;21102;-79
2021/05/12 03:41:13;;;;;;;5.67;4.72;;;;;;;16.17;57.31;99084.58;1631878;87;21115;-79
2021/05/12 03:43:39;;;;;;;7.17;3.80;;;;;;;16.16;57.38;99083.45;1631611;88;21152;-79
2021/05/12 03:46:05;;;;;;;4.30;3.70;;;;;;;16.15;57.40;99086.58;1631225;87;21277;-79
2021/05/12 03:48:31;;;;;;;7.20;3.85;;;;;;;16.15;57.85;99089.24;1631627;88;21553;-79
2021/05/12 03:50:58;;;;;;;4.90;3.87;;;;;;;16.13;57.72;99093.94;1631460;87;21118;-79
2021/05/12 03:53:25;;;;;;;6.95;4.00;;;;;;;16.11;58.03;99099.92;1631641;88;21114;-79
2021/05/12 03:55:52;;;;;;;5.25;3.92;;;;;;;16.09;58.03;99103.28;1630066;88;21146;-79
2021/05/12 03:58:18;;;;;;;7.60;3.98;;;;;;;16.10;57.88;99105.44;1628330;87;21135;-79
2021/05/12 04:00:45;;;;;;;5.20;3.87;;;;;;;16.09;58.38;99102.42;1623206;87;21130;-79
2021/05/12 04:03:12;;;;;;;4.92;4.05;;;;;;;16.06;58.48;99099.64;1631288;88;21155;-79
2021/05/12 04:05:38;;;;;;;8.30;5.20;;;;;;;16.06;58.71;99102.81;1631783;88;21184;-79
2021/05/12 04:08:05;;;;;;;9.58;4.67;;;;;;;16.08;58.81;99108.26;1629192;88;21270;-79
2021/05/12 04:10:32;;;;;;;9.10;4.53;;;;;;;16.10;58.98;99101.45;1622673;87;21586;-79
2021/05/12 04:12:58;;;;;;;7.20;4.42;;;;;;;16.12;59.31;99097.61;1631777;88;21140;-79
2021/05/12 04:15:24;;;;;;;9.13;5.25;;;;;;;16.15;59.61;99100.39;1631800;87;21549;-79
2021/05/12 04:17:50;;;;;;;10.63;5.20;;;;;;;16.17;60.41;99102.39;1629183;87;21181;-79
2021/05/12 04:20:19;;;;;;;8.68;5.97;;;;;;;16.21;61.40;99109.52;1625152;87;21139;-80
2021/05/12 04:22:46;;;;;;;11.25;6.55;;;;;;;16.23;61.94;99111.51;1611224;89;21148;-79
2021/05/12 04:25:16;;;;;;;6.85;6.17;;;;;;;16.23;63.18;99111.51;1621665;88;21157;-79
2021/05/12 04:27:43;;;;;;;11.15;6.58;;;;;;;16.25;63.46;99107.64;1631325;88;21130;-80
2021/05/12 04:30:12;;;;;;;8.30;6.28;;;;;;;16.30;64.45;99109.79;1631826;87;21596;-79
2021/05/12 04:32:40;;;;;;;7.70;6.42;;;;;;;16.35;64.71;99110.06;1614773;88;21121;-80
2021/05/12 04:35:08;;;;;;;7.92;6.97;;;;;;;16.38;66.17;99107.88;1630734;87;21344;-80
2021/05/12 04:37:34;;;;;;;9.85;6.70;;;;;;;16.41;66.52;99108.84;1630207;88;21555;-80
2021/05/12 04:40:00;;;;;;;8.05;6.40;;;;;;;16.46;66.55;99113.66;1630500;88;21262;-79
2021/05/12 04:42:26;;;;;;;9.55;7.83;;;;;;;16.50;67.15;99116.79;1621913;88;21705;-80
2021/05/12 04:44:55;;;;;;;10.55;8.28;;;;;;;16.53;67.61;99123.09;1631401;87;21138;-80
2021/05/12 04:47:22;;;;;;;8.78;6.92;;;;;;;16.57;68.12;99124.38;1622717;87;21330;-79
2021/05/12 04:49:47;;;;;;;8.55;7.65;;;;;;;16.56;67.73;99119.56;1630976;88;21124;-79
2021/05/12 04:52:14;;;;;;;10.50;7.55;;;;;;;16.61;67.32;99118.50;1624382;87;21315;-79
2021/05/12 04:54:40;;;;;;;11.93;8.25;;;;;;;16.64;68.57;99110.67;1631385;87;21098;-80
2021/05/12 04:57:07;;;;;;;10.03;8.65;;;;;;;16.63;69.47;99117.02;1631644;87;21183;-81
2021/05/12 04:59:33;;;;;;;12.20;8.73;;;;;;;16.63;69.60;99115.68;1631670;87;21136;-80
2021/05/12 05:02:00;;;;;;;8.53;7.45;;;;;;;16.63;69.45;99115.68;1631882;86;21285;-80
2021/05/12 05:04:27;;;;;;;8.30;7.53;;;;;;;16.67;69.62;99122.30;1631862;86;21589;-80
2021/05/12 05:06:53;;;;;;;9.43;8.43;;;;;;;16.70;69.72;99126.44;1631636;88;21169;-82
2021/05/12 05:09:19;;;;;;;10.55;8.45;;;;;;;16.73;70.68;99128.23;1631537;87;21614;-80
2021/05/12 05:11:45;;;;;;;8.38;7.58;;;;;;;16.75;70.42;99124.94;1631476;88;21139;-81
2021/05/12 05:14:12;;;;;;;10.30;8.85;;;;;;;16.76;71.11;99124.42;1631496;87;21533;-81
2021/05/12 05:16:38;;;;;;;10.32;9.38;;;;;;;16.75;71.30;99124.08;1631549;88;21169;-83
2021/05/12 05:19:05;;;;;;;11.78;9.48;;;;;;;16.77;72.11;99130.89;1631588;88;21632;-81
2021/05/12 05:21:32;;;;;;;14.98;9.43;;;;;;;16.79;70.94;99122.23;1631591;88;21554;-80
2021/05/12 05:23:59;;;;;;;9.95;8.93;;;;;;;16.83;71.34;99131.51;1631611;88;21288;-81
2021/05/12 05:26:25;;;;;;;11.48;8.80;;;;;;;16.86;71.35;99135.14;1631762;88;21143;-80
2021/05/12 05:28:51;;;;;;;11.57;9.05;;;;;;;16.89;71.08;99140.63;1631521;87;21089;-80
2021/05/12 05:31:18;;;;;;;10.53;8.95;;;;;;;16.94;71.71;99145.39;1630577;88;21258;-80
2021/05/12 05:33:44;;;;;;;12.53;9.10;;;;;;;16.97;71.92;99147.70;1630157;88;21155;-81
2021/05/12 05:36:09;;;;;;;10.43;8.83;;;;;;;16.97;71.89;99145.86;1630334;88;21127;-80
2021/05/12 05:38:36;;;;;;;10.65;9.65;;;;;;;16.99;72.00;99145.70;1630380;88;21669;-81
2021/05/12 05:41:02;;;;;;;11.43;9.15;;;;;;;16.99;72.02;99143.85;1631793;88;21521;-81
2021/05/12 05:43:28;;;;;;;10.65;9.53;;;;;;;17.02;72.07;99137.34;1631678;87;21102;-81
2021/05/12 05:45:55;;;;;;;10.70;8.63;;;;;;;17.05;72.01;99136.47;1631594;87;21271;-80
2021/05/12 05:48:21;;;;;;;16.57;9.68;;;;;;;17.10;72.08;99129.25;1631675;87;21165;-78
2021/05/12 05:50:48;;;;;;;10.58;9.58;;;;;;;17.16;72.52;99133.85;1630648;88;21278;-80
2021/05/12 05:53:19;;;;;;;11.00;8.93;;;;;;;17.19;72.21;99141.48;1630400;88;21297;-83
2021/05/12 05:55:46;;;;;;;12.33;8.63;;;;;;;17.19;72.21;99141.48;1630598;88;21159;-85
2021/05/12 05:58:13;;;;;;;9.13;7.90;;;;;;;17.19;72.44;99137.48;1630412;87;21299;-85
2021/05/12 06:00:44;;;;;;;9.58;8.58;;;;;;;17.23;72.55;99141.44;1630860;88;21721;-86
2021/05/12 06:03:10;;;;;;;10.05;9.05;;;;;;;17.26;72.66;99142.92;1630566;87;21158;-85
2021/05/12 06:05:37;;;;;;;12.88;8.80;;;;;;;17.30;72.55;99137.02;1630374;87;21135;-85
2021/05/12 06:08:03;;;;;;;10.65;9.55;;;;;;;17.26;72.58;99128.25;1631245;88;21592;-86
2021/05/12 06:10:29;;;;;;;10.48;8.63;;;;;;;17.39;73.00;99140.44;1630846;87;21140;-85
2021/05/12 06:12:55;;;;;;;9.40;8.50;;;;;;;17.41;72.88;99142.94;1631322;88;21106;-85
2021/05/12 06:15:21;;;;;;;10.00;9.00;;;;;;;17.47;72.60;99144.36;1632110;88;21300;-84
2021/05/12 06:17:48;;;;;;;9.50;8.60;;;;;;;17.51;72.87;99148.30;1631848;87;21524;-83
2021/05/12 06:20:15;;;;;;;11.65;9.48;;;;;;;17.56;72.84;99150.41;1631332;87;21154;-84
2021/05/12 06:22:42;;;;;;;9.93;9.00;;;;;;;17.61;73.19;99148.02;1631121;88;21133;-84
2021/05/12 06:25:10;;;;;;;11.22;9.63;;;;;;;17.64;72.87;99151.66;1630572;88;21100;-84
2021/05/12 06:27:41;;;;;;;9.58;8.15;;;;;;;17.70;73.22;99156.73;1630337;88;21143;-85
2021/05/12 06:30:09;;;;;;;11.30;8.33;;;;;;;17.70;73.22;99156.73;1630600;88;21153;-84
2021/05/12 06:32:36;;;;;;;10.30;9.30;;;;;;;17.78;72.80;99148.16;1630425;88;21132;-83
2021/05/12 06:35:02;;;;;;;13.25;10.53;;;;;;;17.78;72.80;99148.16;1630571;88;21542;-84
2021/05/12 06:37:29;;;;;;;10.15;9.15;;;;;;;17.83;72.95;99153.44;1631554;88;21129;-84
2021/05/12 06:39:56;;;;;;;11.25;9.15;;;;;;;17.87;72.91;99148.90;1631826;87;21181;-83
2021/05/12 06:42:22;;;;;;;9.03;8.10;;;;;;;17.77;72.95;99122.51;1628806;88;21213;-84
2021/05/12 06:44:48;;;;;;;9.78;8.80;;;;;;;17.98;72.86;99147.07;1631350;88;21230;-84
2021/05/12 06:47:14;;;;;;;11.57;10.18;;;;;;;18.02;72.53;99146.19;1631735;87;21228;-85
2021/05/12 06:49:40;;;;;;;9.88;8.88;;;;;;;18.05;72.71;99147.14;1631750;87;21280;-84
2021/05/12 06:52:06;;;;;;;10.38;9.38;;;;;;;18.11;72.79;99147.73;1631809;87;21183;-84
2021/05/12 06:54:32;;;;;;;10.15;9.15;;;;;;;18.19;72.96;99148.94;1631893;87;21165;-84
2021/05/12 06:56:58;;;;;;;9.75;8.75;;;;;;;18.17;72.87;99130.96;1626265;88;21081;-86
2021/05/12 06:59:24;;;;;;;9.23;8.30;;;;;;;18.34;72.72;99149.41;1632082;87;21167;-86
2021/05/12 07:01:52;;;;;;;9.90;8.90;;;;;;;18.39;72.62;99145.64;1630642;87;21133;-83
2021/05/12 07:04:18;;;;;;;9.80;8.80;;;;;;;18.43;72.40;99138.93;1632034;86;21613;-85
2021/05/12 07:06:45;;;;;;;10.78;9.70;;;;;;;18.47;72.40;99140.20;1631179;88;21156;-84
2021/05/12 07:09:11;;;;;;;10.23;9.23;;;;;;;18.55;72.58;99141.38;1618866;87;21186;-86
2021/05/12 07:11:37;;;;;;;11.68;9.18;;;;;;;18.64;72.43;99131.41;1622100;88;21307;-84
2021/05/12 07:14:08;;;;;;;9.65;8.78;;;;;;;18.70;72.27;99133.31;1631806;88;21133;-85
2021/05/12 07:16:32;;;;;;;9.63;8.70;;;;;;;18.77;71.85;99133.40;1631682;86;21334;-85
2021/05/12 07:18:58;;;;;;;10.18;9.25;;;;;;;18.85;71.79;99135.91;1631991;87;21584;-83
2021/05/12 07:21:24;;;;;;;10.45;8.78;;;;;;;18.92;71.70;99136.30;1631589;87;21118;-85
2021/05/12 07:23:50;;;;;;;11.15;9.03;;;;;;;19.02;71.69;99144.47;1627382;87;21568;-87
2021/05/12 07:26:16;;;;;;;10.82;9.15;;;;;;;19.10;71.43;99141.66;1618284;87;21148;-86
2021/05/12 07:28:44;;;;;;;11.40;8.88;;;;;;;19.19;71.50;99147.19;1626155;88;21585;-86
2021/05/12 07:31:10;;;;;;;10.00;9.05;;;;;;;19.30;71.35;99137.27;1630568;87;21604;-87
2021/05/12 07:33:36;;;;;;;14.90;9.45;;;;;;;19.37;71.23;99142.66;1630553;87;21111;-87
2021/05/12 07:36:03;;;;;;;9.48;8.50;;;;;;;19.48;71.86;99135.92;1630504;88;21179;-87
2021/05/12 07:38:29;;;;;;;9.48;8.58;;;;;;;19.59;71.12;99138.05;1629628;87;21316;-88
2021/05/12 07:40:58;;;;;;;9.90;9.00;;;;;;;19.70;70.91;99140.70;1630783;87;21119;-86
2021/05/12 07:43:23;;;;;;;9.63;8.73;;;;;;;19.78;70.38;99136.53;1631228;86;21637;-84
2021/05/12 07:45:48;;;;;;;8.68;7.87;;;;;;;19.83;70.25;99137.56;1631544;87;21196;-87
2021/05/12 07:48:15;;;;;;;9.03;8.20;;;;;;;19.88;70.05;99136.98;1631146;88;21095;-89
2021/05/12 07:50:42;;;;;;;9.83;8.83;;;;;;;19.98;70.35;99144.11;1627832;88;21135;-87
2021/05/12 07:53:08;;;;;;;9.23;7.78;;;;;;;20.06;69.66;99138.56;1631492;88;21596;-85
2021/05/12 07:55:36;;;;;;;9.40;8.28;;;;;;;20.15;69.84;99140.04;1631158;87;21179;-86
2021/05/12 07:58:04;;;;;;;9.58;8.58;;;;;;;20.24;69.85;99143.37;1630919;87;21163;-85
2021/05/12 08:00:33;;;;;;;10.23;8.80;;;;;;;20.32;69.14;99142.34;1631013;88;21289;-86
2021/05/12 08:02:59;;;;;;;13.72;8.35;;;;;;;20.37;69.32;99151.95;1631306;88;21149;-86
2021/05/12 08:05:25;;;;;;;10.18;9.08;;;;;;;20.45;69.04;99146.91;1630887;87;21107;-84
2021/05/12 08:07:51;;;;;;;8.88;7.53;;;;;;;20.52;68.52;99144.56;1630806;88;21284;-85
2021/05/12 08:10:18;;;;;;;10.25;8.10;;;;;;;20.58;68.64;99151.80;1631522;87;21173;-85
2021/05/12 08:12:44;;;;;;;9.58;8.23;;;;;;;20.67;68.60;99147.07;1627789;88;21135;-85
2021/05/12 08:15:11;;;;;;;9.08;8.18;;;;;;;20.76;68.48;99151.69;1631383;87;21157;-84
2021/05/12 08:17:37;;;;;;;11.88;8.10;;;;;;;20.85;68.77;99142.42;1631216;87;21645;-84
2021/05/12 08:20:04;;;;;;;13.40;8.55;;;;;;;20.97;68.34;99148.00;1631227;88;21173;-82
2021/05/12 08:22:30;;;;;;;8.50;7.35;;;;;;;21.08;68.02;99152.20;1631460;87;21544;-84
2021/05/12 08:24:56;;;;;;;8.48;7.25;;;;;;;21.16;67.98;99147.65;1631271;88;21059;-84
2021/05/12 08:27:23;;;;;;;9.83;7.83;;;;;;;21.22;66.76;99145.48;1627844;88;21117;-83
2021/05/12 08:29:59;;;;;;;10.15;7.50;;;;;;;21.28;67.24;99144.64;1630933;88;21127;-84
2021/05/12 08:32:23;;;;;;;8.73;7.92;;;;;;;21.36;67.08;99155.20;1624146;86;21139;-85
2021/05/12 08:34:49;;;;;;;8.45;7.55;;;;;;;21.33;66.44;99155.59;1635256;86;21297;-85
2021/05/12 08:37:15;;;;;;;9.70;7.35;;;;;;;21.31;66.67;99150.94;1631579;88;21498;-84
2021/05/12 08:39:41;;;;;;;7.90;7.15;;;;;;;21.40;67.05;99155.08;1630847;88;21308;-86
2021/05/12 08:42:08;;;;;;;9.60;7.78;;;;;;;21.54;66.61;99151.84;1631515;88;21185;-85
2021/05/12 08:44:34;;;;;;;8.08;7.33;;;;;;;21.64;66.40;99152.22;1628309;88;21119;-85
2021/05/12 08:47:01;;;;;;;8.95;7.17;;;;;;;21.71;65.93;99153.02;1631260;88;21401;-85
2021/05/12 08:49:28;;;;;;;9.58;6.75;;;;;;;21.77;65.70;99158.89;1631157;88;21149;-84
2021/05/12 08:51:55;;;;;;;8.90;6.95;;;;;;;21.86;65.87;99151.43;1614305;88;21320;-87
2021/05/12 08:54:22;;;;;;;8.03;7.22;;;;;;;22.00;65.67;99150.84;1631796;87;21174;-86
2021/05/12 08:56:49;;;;;;;11.08;7.08;;;;;;;22.05;65.55;99147.53;1631233;88;21193;-85
2021/05/12 08:59:16;;;;;;;8.15;6.87;;;;;;;22.15;65.19;99150.09;1631581;87;21165;-84
2021/05/12 09:01:43;;;;;;;8.93;6.67;;;;;;;22.27;64.87;99142.15;1631530;87;21708;-86
2021/05/12 09:04:09;;;;;;;7.72;7.00;;;;;;;22.30;64.43;99142.25;1631399;88;21115;-86
2021/05/12 09:06:37;;;;;;;9.15;8.08;;;;;;;22.23;64.17;99139.59;1631546;88;21765;-86
2021/05/12 09:09:07;;;;;;;8.60;7.28;;;;;;;22.18;63.83;99142.95;1631304;88;21161;-84
2021/05/12 09:11:34;;;;;;;7.12;6.53;;;;;;;22.13;64.17;99145.94;1631618;87;21132;-87
2021/05/12 09:14:01;;;;;;;8.58;7.20;;;;;;;22.20;64.58;99138.69;1631499;88;21597;-84
2021/05/12 09:16:30;;;;;;;8.85;6.50;;;;;;;22.27;64.37;99144.84;1628286;88;21211;-87
2021/05/12 09:19:13;;;;;;;8.83;7.92;;;;;;;22.32;64.26;99141.00;1631597;88;21271;-85
2021/05/12 09:21:52;;;;;;;10.63;7.58;;;;;;;22.23;63.63;99140.42;1630085;88;21133;-86
2021/05/12 09:24:24;;;;;;;9.63;8.73;;;;;;;22.16;64.17;99140.98;1626800;87;21132;-86
2021/05/12 09:26:53;;;;;;;10.13;8.48;;;;;;;22.18;64.17;99141.60;1628282;88;21157;-86
2021/05/12 09:29:25;;;;;;;8.50;7.70;;;;;;;22.31;64.94;99140.70;1631529;88;21168;-85
2021/05/12 09:31:54;;;;;;;8.08;7.37;;;;;;;22.46;63.87;99143.08;1631817;86;21583;-89
2021/05/12 09:34:20;;;;;;;9.38;8.00;;;;;;;22.60;64.28;99142.45;1635367;86;21099;-85
2021/05/12 09:36:46;;;;;;;9.20;7.42;;;;;;;22.65;63.34;99140.77;1633534;86;21173;-85
2021/05/12 09:39:15;;;;;;;9.65;7.53;;;;;;;22.68;63.18;99143.02;1631847;87;21182;-87
2021/05/12 09:41:43;;;;;;;9.68;8.70;;;;;;;22.64;62.91;99147.20;1631433;88;22343;-87
2021/05/12 09:44:10;;;;;;;8.95;8.15;;;;;;;22.53;62.67;99147.06;1628087;88;21149;-87
2021/05/12 09:46:40;;;;;;;10.00;8.00;;;;;;;22.40;62.71;99141.25;1631693;88;21328;-87
2021/05/12 09:49:10;;;;;;;8.45;7.65;;;;;;;22.38;63.43;99138.80;1631134;87;21200;-86
2021/05/12 09:51:44;;;;;;;9.10;8.30;;;;;;;22.48;63.43;99141.00;1631351;88;21762;-85
2021/05/12 09:54:19;;;;;;;9.78;8.88;;;;;;;22.51;63.30;99135.69;1628798;87;21119;-86
2021/05/12 09:56:56;;;;;;;10.32;9.30;;;;;;;22.57;62.76;99136.98;1627846;88;21114;-86
2021/05/12 09:59:25;;;;;;;10.15;9.10;;;;;;;22.62;63.18;99134.48;1631476;86;21640;-85
2021/05/12 10:02:00;;;;;;;8.98;8.18;;;;;;;22.69;62.66;99135.77;1631384;87;21146;-86
2021/05/12 10:04:39;;;;;;;9.68;8.88;;;;;;;22.76;62.69;99137.88;1631355;87;21146;-86
2021/05/12 10:07:21;;;;;;;9.80;9.00;;;;;;;22.91;62.86;99141.08;1629903;88;21151;-85
2021/05/12 10:09:49;;;;;;;;;;;;;;;23.05;62.73;99134.27;1631961;88;21179;-85
2021/05/12 10:12:25;;;;;;;9.25;8.45;;;;;;;23.24;62.85;99131.91;1630997;87;20192;-85
2021/05/12 10:14:59;;;;;;;10.08;9.13;;;;;;;23.33;61.43;99133.27;1631408;87;21164;-86
2021/05/12 10:17:28;;;;;;;9.10;8.30;;;;;;;23.33;62.18;99137.30;1629129;88;21095;-84
2021/05/12 10:19:55;;;;;;;10.70;9.33;;;;;;;23.40;60.93;99135.36;1631220;86;21151;-85
2021/05/12 10:22:22;;;;;;;10.43;9.48;;;;;;;23.37;61.45;99129.08;1631120;87;21180;-84
2021/05/12 10:24:56;;;;;;;10.48;9.58;;;;;;;23.43;61.37;99134.09;1631445;88;21264;-85
2021/05/12 10:27:31;;;;;;;10.13;8.83;;;;;;;23.53;60.58;99126.84;1628783;86;21135;-84
2021/05/12 10:30:02;;;;;;;9.58;8.70;;;;;;;23.61;61.03;99126.53;1619934;86;21163;-86
2021/05/12 10:32:36;;;;;;;10.58;9.68;;;;;;;23.65;59.60;99123.67;1631301;88;21162;-85
2021/05/12 10:35:09;;;;;;;13.50;10.55;;;;;;;23.62;59.35;99122.25;1600213;88;21555;-84
2021/05/12 10:37:44;;;;;;;11.30;10.25;;;;;;;23.69;60.48;99125.42;1613975;88;21327;-82
2021/05/12 10:40:38;;;;;;;10.43;9.40;;;;;;;23.71;60.55;99120.64;1593941;88;21149;-84
2021/05/12 10:43:22;;;;;;;10.70;9.60;;;;;;;23.77;60.20;99125.13;1632923;86;21579;-84
2021/05/12 10:45:54;;;;;;;10.18;9.18;;;;;;;23.80;59.27;99122.81;1628974;88;21305;-85
2021/05/12 10:48:47;;;;;;;11.22;9.00;;;;;;;23.82;59.74;99123.91;1630426;88;21132;-86
2021/05/12 10:51:33;;;;;;;10.03;9.00;;;;;;;23.89;59.71;99124.67;1630435;88;21186;-85
2021/05/12 10:54:06;;;;;;;10.43;9.53;;;;;;;23.97;59.07;99124.87;1630679;88;21179;-86
2021/05/12 10:56:39;;;;;;;10.53;9.03;;;;;;;24.03;59.02;99116.70;1628865;87;21615;-84
2021/05/12 10:59:10;;;;;;;12.53;9.25;;;;;;;24.09;58.72;99117.14;1613191;88;21135;-85
2021/05/12 11:01:49;;;;;;;9.68;8.30;;;;;;;24.20;59.55;99120.11;1631711;87;21122;-86
2021/05/12 11:04:18;;;;;;;11.10;10.10;;;;;;;24.32;58.47;99125.02;1630913;88;21222;-85
2021/05/12 11:06:52;;;;;;;10.58;9.58;;;;;;;24.33;58.06;99122.08;1629678;88;21168;-85
2021/05/12 11:09:22;;;;;;;9.83;9.03;;;;;;;24.39;58.94;99109.56;1631212;88;21213;-85
2021/05/12 11:11:53;;;;;;;9.83;8.93;;;;;;;24.58;58.82;99110.34;1631750;88;21738;-86
2021/05/12 11:14:35;;;;;;;10.65;9.58;;;;;;;24.66;58.41;99113.22;1632138;88;21149;-85
2021/05/12 11:17:18;;;;;;;9.55;8.65;;;;;;;24.75;57.43;99111.30;1631637;87;21338;-87
2021/05/12 11:19:54;;;;;;;10.53;9.53;;;;;;;24.73;56.84;99105.30;1631982;87;21171;-86
2021/05/12 11:33:28;;;;;;;10.40;9.33;;;;;;;24.93;56.51;99091.47;1628079;88;21152;-87
2021/05/12 11:36:08;;;;;;;11.10;9.98;;;;;;;24.97;57.47;99087.77;1631689;88;21199;-85
2021/05/12 11:38:30;;;;;;;9.00;7.97;;;;;;;25.02;56.56;99082.50;1620627;87;21197;-86
2021/05/12 11:41:09;;;;;;;9.70;8.73;;;;;;;25.02;55.82;99087.91;1629701;88;21104;-87
2021/05/12 11:44:00;;;;;;;9.75;8.45;;;;;;;25.01;55.96;99091.67;1631843;88;21594;-87
2021/05/12 11:46:39;;;;;;;10.30;9.40;;;;;;;25.02;56.71;99079.27;1631806;87;21585;-86
2021/05/12 11:49:12;;;;;;;9.30;8.38;;;;;;;25.08;56.59;99078.05;1631860;88;21194;-86